Time;durP1;ratioP1;P1;durP2;ratioP2;P2;SDS_P1;SDS_P2;PMS_P1;PMS_P2;Temp;Humidity;BMP_temperature;BMP_pressure;BME280_temperature;BME280_humidity;BME280_pressure;Samples;Min_cycle;Max_cycle;Signal;HPM_P1;HPM_P2
2023/03/12 00:00:14;;;;;;;;;4.20;4.20;;;;;0.12;45.07;98842.88;5050385;28;8899;-73
2023/03/12 00:03:02;;;;;;;;;8.60;5.80;;;;;0.02;45.37;98844.53;5061932;28;8887;-72
2023/03/12 00:05:32;;;;;;;;;4.80;4.80;;;;;0.10;45.53;98842.00;5050146;28;8883;-71
2023/03/12 00:08:00;;;;;;;;;8.40;5.80;;;;;-0.00;45.57;98840.19;5049134;28;8979;-73
2023/03/12 00:10:29;;;;;;;;;8.00;7.00;;;;;-0.09;46.26;98853.00;5050789;28;8840;-72
2023/03/12 00:12:59;;;;;;;;;8.40;8.40;;;;;-0.14;46.02;98853.84;5082340;28;8886;-71
2023/03/12 00:15:28;;;;;;;;;7.00;7.00;;;;;-0.09;46.10;98866.78;5050256;28;8852;-72
2023/03/12 00:17:57;;;;;;;;;8.20;6.20;;;;;-0.00;46.15;98863.44;5050147;28;8865;-72
2023/03/12 00:20:26;;;;;;;;;8.80;5.80;;;;;-0.19;45.94;98865.81;5050525;28;8860;-71
2023/03/12 00:22:55;;;;;;;;;7.80;7.80;;;;;-0.27;46.72;98858.84;5050122;28;8860;-71
2023/03/12 00:25:23;;;;;;;;;6.20;6.20;;;;;-0.31;46.33;98856.22;5050142;28;8887;-72
2023/03/12 00:27:52;;;;;;;;;5.80;5.80;;;;;-0.31;45.87;98861.38;5010809;28;8871;-71
2023/03/12 00:30:22;;;;;;;;;6.60;6.60;;;;;-0.41;46.06;98864.69;5043473;28;8938;-72
2023/03/12 00:32:51;;;;;;;;;6.60;6.60;;;;;-0.19;45.58;98865.81;5044039;28;9595;-73
2023/03/12 00:35:20;;;;;;;;;5.80;4.40;;;;;-0.33;46.12;98877.72;5027541;28;8845;-71
2023/03/12 00:37:48;;;;;;;;;4.00;4.00;;;;;-0.16;46.11;98877.94;4977364;28;9015;-72
2023/03/12 00:40:17;;;;;;;;;5.80;5.80;;;;;-0.16;46.08;98875.34;5027187;28;8854;-73
2023/03/12 00:42:46;;;;;;;;;4.60;4.60;;;;;-0.05;45.98;98865.97;4995226;28;8846;-72
2023/03/12 00:45:15;;;;;;;;;11.00;11.00;;;;;-0.14;45.63;98864.16;4978369;28;8898;-73
2023/03/12 00:47:45;;;;;;;;;7.60;7.00;;;;;-0.14;45.76;98855.56;5027160;28;8965;-73
2023/03/12 00:50:14;;;;;;;;;8.60;7.00;;;;;-0.32;46.14;98864.81;4962301;28;9776;-71
2023/03/12 00:52:43;;;;;;;;;7.40;4.80;;;;;-0.26;46.08;98865.72;5043695;28;8992;-72
2023/03/12 00:55:12;;;;;;;;;7.60;7.60;;;;;-0.17;45.70;98864.13;5043594;28;8865;-73
2023/03/12 00:57:40;;;;;;;;;7.40;5.80;;;;;-0.39;45.97;98870.78;4993634;28;8845;-70
2023/03/12 01:00:11;;;;;;;;;7.40;7.00;;;;;-0.28;46.32;98860.53;5028939;28;8873;-72
2023/03/12 01:02:40;;;;;;;;;6.20;5.00;;;;;-0.48;46.12;98854.25;5027719;28;8915;-73
2023/03/12 01:05:13;;;;;;;;;8.00;5.80;;;;;-0.58;46.44;98855.88;5029581;28;8983;-71
2023/03/12 01:07:42;;;;;;;;;11.40;9.60;;;;;-0.59;46.09;98844.69;5027969;28;8880;-71
2023/03/12 01:10:14;;;;;;;;;5.40;2.80;;;;;-0.51;46.26;98847.38;5062418;28;8891;-72
2023/03/12 01:12:44;;;;;;;;;8.00;6.60;;;;;-0.52;45.58;98846.50;5064586;28;9004;-71
2023/03/12 01:15:15;;;;;;;;;8.00;8.00;;;;;-0.65;46.50;98859.22;5030198;28;8891;-72
2023/03/12 01:17:44;;;;;;;;;8.25;8.25;;;;;-0.61;45.99;98855.84;5049087;28;8959;-73
2023/03/12 01:20:16;;;;;;;;;7.40;7.40;;;;;-0.50;46.45;98862.03;5080392;28;8884;-72
2023/03/12 01:22:45;;;;;;;;;4.80;4.80;;;;;-0.60;46.70;98853.25;5014718;28;8888;-72
2023/03/12 01:25:14;;;;;;;;;7.60;6.80;;;;;-0.57;46.96;98862.78;5047622;28;8888;-72
2023/03/12 01:27:43;;;;;;;;;7.60;7.40;;;;;-0.64;46.53;98853.22;5049763;28;8873;-70
2023/03/12 01:30:13;;;;;;;;;7.75;7.75;;;;;-0.42;45.80;98856.94;5049330;28;8860;-73
2023/03/12 01:32:41;;;;;;;;;6.00;6.00;;;;;-0.47;45.94;98859.47;5064243;28;8866;-72
2023/03/12 01:35:11;;;;;;;;;10.50;10.50;;;;;-0.45;45.47;98860.34;5047146;28;8880;-71
2023/03/12 01:37:40;;;;;;;;;10.60;10.20;;;;;-0.39;45.94;98864.72;5064068;28;8868;-73
2023/03/12 01:40:15;;;;;;;;;17.50;15.75;;;;;-0.61;46.61;98861.00;5047172;28;8853;-73
2023/03/12 01:42:43;;;;;;;;;24.75;18.00;;;;;-0.41;46.27;98866.41;5063529;28;8876;-71
2023/03/12 01:45:50;;;;;;;;;16.00;14.00;;;;;-0.61;46.85;98867.03;5048311;28;8857;-72
2023/03/12 01:48:20;;;;;;;;;10.50;10.50;;;;;-0.46;46.37;98871.53;5063378;28;8863;-71
2023/03/12 01:50:49;;;;;;;;;12.50;10.00;;;;;-0.76;46.97;98875.44;5063446;28;8853;-71
2023/03/12 01:53:21;;;;;;;;;13.75;13.75;;;;;-0.83;47.16;98881.34;5047187;28;8900;-72
2023/03/12 01:55:51;;;;;;;;;16.25;15.25;;;;;-0.82;47.34;98877.03;5080282;28;8861;-73
2023/03/12 01:58:21;;;;;;;;;18.00;17.75;;;;;-0.85;47.18;98883.03;5047098;28;8837;-72
2023/03/12 02:00:49;;;;;;;;;19.50;15.50;;;;;-0.73;47.13;98877.19;5063632;28;8855;-72
2023/03/12 02:03:18;;;;;;;;;18.50;12.00;;;;;-0.87;47.29;98882.16;5063228;28;8837;-71
2023/03/12 02:05:53;;;;;;;;;18.50;17.75;;;;;-0.73;46.91;98875.50;5063413;28;8840;-72
2023/03/12 02:08:24;;;;;;;;;13.50;13.50;;;;;-0.74;47.33;98884.06;5047987;28;8999;-73
2023/03/12 02:10:53;;;;;;;;;11.40;11.40;;;;;-0.71;47.48;98886.69;5029594;28;8853;-71
2023/03/12 02:13:22;;;;;;;;;11.80;10.60;;;;;-0.58;46.90;98892.00;5047109;28;9042;-71
2023/03/12 02:15:51;;;;;;;;;10.00;9.00;;;;;-0.59;46.90;98886.00;5046895;28;8865;-73
2023/03/12 02:18:20;;;;;;;;;12.25;12.25;;;;;-0.26;46.29;98891.56;5046628;28;8876;-72
2023/03/12 02:20:56;;;;;;;;;13.75;13.75;;;;;-0.67;47.53;98894.47;5045586;28;8978;-72
2023/03/12 02:23:32;;;;;;;;;6.00;6.00;;;;;-0.64;47.42;98912.59;5047042;28;8840;-72
2023/03/12 02:26:04;;;;;;;;;12.50;10.75;;;;;-0.63;47.52;98914.34;5046816;28;8852;-72
2023/03/12 02:28:41;;;;;;;;;16.25;13.25;;;;;-0.82;47.98;98928.66;5046935;28;8911;-73
2023/03/12 02:31:14;;;;;;;;;20.00;15.50;;;;;-0.87;47.79;98925.16;5079742;28;8858;-71
2023/03/12 02:33:43;;;;;;;;;17.25;14.00;;;;;-0.73;47.62;98932.25;4993384;28;8907;-71
2023/03/12 02:36:13;;;;;;;;;14.75;13.00;;;;;-0.84;47.69;98936.41;5046590;28;8856;-72
2023/03/12 02:38:44;;;;;;;;;15.75;14.50;;;;;-0.80;48.14;98934.72;5067033;28;8842;-73
2023/03/12 02:41:20;;;;;;;;;12.00;10.50;;;;;-0.83;47.73;98932.94;5066624;28;8869;-71
2023/03/12 02:43:54;;;;;;;;;8.00;7.00;;;;;-0.87;47.53;98944.06;5098654;28;8847;-71
2023/03/12 02:46:23;;;;;;;;;11.25;9.75;;;;;-0.91;47.92;98944.88;5047612;28;8856;-72
2023/03/12 02:48:53;;;;;;;;;11.20;9.00;;;;;-0.77;47.49;98950.25;5032222;28;8860;-73
2023/03/12 02:51:23;;;;;;;;;7.40;7.40;;;;;-0.85;47.79;98964.75;5036687;28;8892;-72
2023/03/12 02:53:53;;;;;;;;;12.00;10.00;;;;;-0.66;46.78;98958.16;4995953;28;8906;-73
2023/03/12 02:56:27;;;;;;;;;8.00;7.00;;;;;-1.17;47.69;98968.53;5044860;28;8830;-72
2023/03/12 02:58:55;;;;;;;;;11.50;10.00;;;;;-1.03;47.91;98957.56;5028957;28;8842;-74
2023/03/12 03:01:25;;;;;;;;;10.50;9.50;;;;;-1.08;48.24;98967.81;5047133;28;8955;-70
2023/03/12 03:03:54;;;;;;;;;12.25;10.00;;;;;-1.25;48.07;98967.53;5049019;28;8931;-72
2023/03/12 03:06:23;;;;;;;;;8.00;7.00;;;;;-1.22;48.15;98965.03;5015866;28;8846;-74
2023/03/12 03:08:52;;;;;;;;;7.75;6.50;;;;;-1.19;48.60;98977.94;5032539;28;8896;-72
2023/03/12 03:11:23;;;;;;;;;8.25;8.25;;;;;-1.29;48.48;98989.81;5031481;28;8870;-71
2023/03/12 03:13:56;;;;;;;;;9.00;7.25;;;;;-1.37;48.92;98988.81;5049069;28;8861;-72
2023/03/12 03:16:25;;;;;;;;;14.00;7.00;;;;;-1.33;48.13;98992.31;4999878;28;8901;-71
2023/03/12 03:18:54;;;;;;;;;7.50;5.75;;;;;-1.31;48.62;99001.81;4982826;28;8846;-71
2023/03/12 03:21:23;;;;;;;;;6.00;6.00;;;;;-1.47;49.00;99014.38;5066353;28;8914;-72
2023/03/12 03:23:52;;;;;;;;;8.75;7.00;;;;;-1.57;49.38;99006.47;5049827;28;8861;-72
2023/03/12 03:26:23;;;;;;;;;9.40;7.60;;;;;-1.39;49.03;99017.97;5015384;28;8837;-71
2023/03/12 03:28:53;;;;;;;;;6.25;6.25;;;;;-1.30;48.60;99015.56;5082681;28;8983;-72
2023/03/12 03:31:23;;;;;;;;;5.20;5.20;;;;;-1.42;48.82;99023.09;5050947;28;8861;-72
2023/03/12 03:33:52;;;;;;;;;7.25;6.50;;;;;-1.46;49.01;99029.03;5065632;28;8938;-70
2023/03/12 03:36:22;;;;;;;;;8.75;8.75;;;;;-1.61;49.92;99021.88;5048905;28;8857;-71
2023/03/12 03:38:59;;;;;;;;;6.50;6.50;;;;;-1.56;49.71;99021.13;5064698;28;8849;-71
2023/03/12 03:41:28;;;;;;;;;6.80;6.00;;;;;-1.67;50.33;99025.19;5064394;28;8871;-70
2023/03/12 03:43:58;;;;;;;;;9.75;9.75;;;;;-1.55;50.26;99033.16;5064474;28;8844;-72
2023/03/12 03:46:29;;;;;;;;;10.50;9.00;;;;;-1.52;50.39;99030.63;5047788;28;8872;-74
2023/03/12 03:49:02;;;;;;;;;12.25;12.25;;;;;-1.70;50.63;99030.28;5064594;28;8849;-71
2023/03/12 03:51:34;;;;;;;;;14.50;13.50;;;;;-1.58;50.79;99038.25;5086291;28;8869;-73
2023/03/12 03:54:07;;;;;;;;;15.25;13.00;;;;;-1.43;50.26;99047.97;5055561;28;8845;-71
2023/03/12 03:56:36;;;;;;;;;11.75;10.00;;;;;-1.43;49.94;99058.28;5103904;28;8842;-72
2023/03/12 03:59:06;;;;;;;;;10.40;8.60;;;;;-1.66;51.20;99056.97;5103727;28;8834;-72
2023/03/12 04:01:40;;;;;;;;;11.00;9.50;;;;;-1.63;50.64;99057.91;5103532;28;8841;-73
2023/03/12 04:04:09;;;;;;;;;7.40;7.40;;;;;-1.81;51.57;99063.53;5019252;28;8913;-72
2023/03/12 04:06:38;;;;;;;;;10.50;8.50;;;;;-1.85;51.64;99061.75;5101296;28;8869;-72
2023/03/12 04:09:06;;;;;;;;;8.00;7.00;;;;;-1.92;51.81;99063.31;5103490;28;8857;-72
2023/03/12 04:11:38;;;;;;;;;9.25;7.50;;;;;-1.64;51.50;99066.47;5068585;28;8846;-72
2023/03/12 04:14:08;;;;;;;;;9.25;8.75;;;;;-1.32;50.44;99068.81;5052595;28;8953;-72
2023/03/12 04:16:41;;;;;;;;;8.60;8.20;;;;;-1.51;51.12;99078.75;5049922;28;8840;-72
2023/03/12 04:19:10;;;;;;;;;5.00;5.00;;;;;-1.28;50.23;99083.50;5036178;28;9028;-70
2023/03/12 04:21:39;;;;;;;;;10.75;9.25;;;;;-1.54;50.84;99077.81;5052624;28;8886;-73
2023/03/12 04:24:14;;;;;;;;;9.40;9.00;;;;;-1.97;51.86;99079.53;5069454;28;8943;-71
2023/03/12 04:26:43;;;;;;;;;12.60;9.40;;;;;-2.07;51.94;99078.44;5103026;28;8943;-71
2023/03/12 04:29:13;;;;;;;;;8.50;8.50;;;;;-2.14;52.38;99080.00;5036192;28;8951;-71
2023/03/12 04:31:44;;;;;;;;;12.80;9.40;;;;;-1.98;52.10;99086.34;5082372;28;8850;-71
2023/03/12 04:34:13;;;;;;;;;9.00;6.75;;;;;-1.97;51.92;99090.69;5084283;28;8947;-71
2023/03/12 04:36:46;;;;;;;;;10.40;9.20;;;;;-1.87;51.23;99113.22;5061315;28;8855;-71
2023/03/12 04:39:18;;;;;;;;;12.00;9.75;;;;;-2.02;51.71;99097.44;5061906;28;8867;-72
2023/03/12 04:41:50;;;;;;;;;9.00;9.00;;;;;-1.91;51.49;99101.13;5028446;28;8966;-72
2023/03/12 04:44:18;;;;;;;;;9.50;8.00;;;;;-1.80;50.98;99109.09;5044527;28;8879;-72
2023/03/12 04:46:49;;;;;;;;;9.20;6.80;;;;;-1.59;50.78;99112.97;5028654;28;8932;-71
2023/03/12 04:49:21;;;;;;;;;9.50;7.00;;;;;-1.69;50.94;99117.06;5064836;28;8828;-71
2023/03/12 04:51:50;;;;;;;;;9.50;9.00;;;;;-1.84;51.28;99115.00;4997944;28;8902;-72
2023/03/12 04:54:21;;;;;;;;;10.50;10.50;;;;;-1.93;51.34;99125.97;5081501;28;8877;-71
2023/03/12 04:56:51;;;;;;;;;9.00;8.00;;;;;-1.98;51.78;99121.56;5064568;28;8942;-72
2023/03/12 04:59:23;;;;;;;;;12.75;12.75;;;;;-1.88;51.58;99133.81;5064703;28;8868;-72
2023/03/12 05:01:54;;;;;;;;;12.50;12.50;;;;;-1.94;51.63;99134.56;5049491;28;8841;-71
2023/03/12 05:04:27;;;;;;;;;13.00;12.00;;;;;-1.88;51.58;99147.56;5081777;28;8872;-72
2023/03/12 05:06:56;;;;;;;;;15.75;13.50;;;;;-1.96;51.53;99141.34;5081473;28;8841;-72
2023/03/12 05:09:25;;;;;;;;;17.75;17.50;;;;;-1.91;51.91;99160.34;5047910;28;8861;-72
2023/03/12 05:11:54;;;;;;;;;16.00;16.00;;;;;-1.50;51.24;99150.09;5047772;28;8825;-71
2023/03/12 05:14:23;;;;;;;;;22.00;20.75;;;;;-1.40;50.37;99158.03;5048384;28;8943;-71
2023/03/12 05:16:54;;;;;;;;;19.25;17.25;;;;;-1.57;50.56;99168.84;5047556;28;8836;-73
2023/03/12 05:19:23;;;;;;;;;23.00;20.50;;;;;-1.56;50.95;99170.59;5064234;28;8903;-72
2023/03/12 05:21:52;;;;;;;;;19.50;18.75;;;;;-1.62;50.68;99180.75;5014058;28;9579;-70
2023/03/12 05:24:21;;;;;;;;;18.25;16.50;;;;;-1.59;51.45;99173.09;5047354;28;8873;-72
2023/03/12 05:26:51;;;;;;;;;15.00;15.00;;;;;-1.64;51.29;99182.44;5047413;28;8857;-72
2023/03/12 05:29:23;;;;;;;;;19.00;17.25;;;;;-1.89;51.72;99191.31;5063860;28;8881;-72
2023/03/12 05:31:55;;;;;;;;;18.25;16.00;;;;;-1.85;52.14;99197.41;5063808;28;8851;-72
2023/03/12 05:34:24;;;;;;;;;20.75;20.00;;;;;-1.92;52.51;99202.44;5046023;28;8853;-72
2023/03/12 05:36:53;;;;;;;;;16.00;15.50;;;;;-2.02;52.66;99210.75;5047237;28;8952;-70
2023/03/12 05:39:25;;;;;;;;;19.50;15.50;;;;;-1.93;52.63;99205.81;5047184;28;8876;-71
2023/03/12 05:41:56;;;;;;;;;17.75;16.75;;;;;-1.83;52.57;99216.34;5080833;28;8868;-72
2023/03/12 05:44:26;;;;;;;;;10.75;10.75;;;;;-1.66;51.80;99220.19;5047036;28;8849;-73
2023/03/12 05:46:57;;;;;;;;;17.00;13.00;;;;;-1.78;51.61;99225.94;5063554;28;8891;-71
2023/03/12 05:49:27;;;;;;;;;15.00;13.50;;;;;-1.75;51.35;99232.84;5030219;28;9572;-71
2023/03/12 05:51:58;;;;;;;;;13.50;13.50;;;;;-1.54;51.04;99235.06;5063744;28;8895;-72
2023/03/12 05:54:28;;;;;;;;;14.25;14.25;;;;;-1.60;50.92;99232.34;5029668;28;8973;-71
2023/03/12 05:56:57;;;;;;;;;14.25;11.75;;;;;-1.74;51.82;99247.50;5080407;28;8914;-74
2023/03/12 05:59:28;;;;;;;;;16.25;12.25;;;;;-1.64;51.44;99244.28;5046939;28;8861;-72
2023/03/12 06:01:59;;;;;;;;;17.50;13.50;;;;;-1.64;51.47;99241.72;5025958;28;8868;-72
2023/03/12 06:04:28;;;;;;;;;17.50;14.50;;;;;-1.64;51.45;99249.44;5068582;28;8872;-72
2023/03/12 06:06:57;;;;;;;;;12.25;12.25;;;;;-1.64;50.94;99253.72;5080503;28;8869;-72
2023/03/12 06:09:27;;;;;;;;;9.75;6.25;;;;;-1.44;50.60;99261.94;5080256;28;8853;-72
2023/03/12 06:11:56;;;;;;;;;10.50;9.00;;;;;-1.56;50.20;99263.41;5063506;28;10073;-71
2023/03/12 06:14:25;;;;;;;;;12.50;12.00;;;;;-1.36;50.04;99263.84;5063275;28;8968;-72
2023/03/12 06:16:55;;;;;;;;;18.25;16.25;;;;;-1.22;49.79;99255.53;5063228;28;8857;-73
2023/03/12 06:19:26;;;;;;;;;16.75;15.50;;;;;-1.34;49.80;99267.31;5047881;28;8856;-73
2023/03/12 06:21:55;;;;;;;;;17.75;17.75;;;;;-1.27;49.52;99270.06;5046968;28;8880;-72
2023/03/12 06:24:23;;;;;;;;;19.00;16.25;;;;;-1.39;49.49;99281.84;5080022;28;8880;-73
2023/03/12 06:27:01;;;;;;;;;17.25;17.25;;;;;-1.49;50.06;99283.31;5046800;28;8879;-72
2023/03/12 06:29:29;;;;;;;;;15.00;10.25;;;;;-1.45;49.09;99273.06;5048009;28;8857;-72
2023/03/12 06:31:58;;;;;;;;;16.75;15.00;;;;;-1.49;49.40;99283.31;5029122;28;8952;-73
2023/03/12 06:34:29;;;;;;;;;16.50;15.50;;;;;-1.31;49.86;99282.88;5012757;28;8891;-71
2023/03/12 06:36:58;;;;;;;;;15.50;14.25;;;;;-1.27;49.70;99276.06;5047164;28;9715;-71
2023/03/12 06:39:28;;;;;;;;;9.50;7.50;;;;;-1.21;48.61;99299.41;5047722;28;8967;-72
2023/03/12 06:41:57;;;;;;;;;18.25;15.25;;;;;-1.00;48.41;99285.25;5048034;28;8857;-73
2023/03/12 06:44:26;;;;;;;;;17.25;17.25;;;;;-0.91;48.39;99282.88;5047990;28;8850;-72
2023/03/12 06:46:55;;;;;;;;;17.25;17.25;;;;;-1.00;47.71;99301.59;5048118;28;8934;-73
2023/03/12 06:49:24;;;;;;;;;10.25;10.25;;;;;-1.06;47.69;99286.00;5050638;28;8853;-71
2023/03/12 06:51:55;;;;;;;;;20.75;19.25;;;;;-1.13;48.91;99279.81;5029002;28;8864;-72
2023/03/12 06:54:25;;;;;;;;;16.00;13.00;;;;;-1.38;49.17;99275.81;5047662;28;8941;-72
2023/03/12 06:56:54;;;;;;;;;16.00;15.50;;;;;-1.15;48.75;99290.94;5047304;28;8974;-72
2023/03/12 06:59:22;;;;;;;;;16.00;16.00;;;;;-1.25;48.41;99296.75;5046152;28;8872;-72
2023/03/12 07:01:51;;;;;;;;;14.75;14.75;;;;;-1.06;47.93;99292.88;5047366;28;8849;-71
2023/03/12 07:04:21;;;;;;;;;13.50;12.50;;;;;-0.99;48.23;99294.75;5047383;28;8857;-72
2023/03/12 07:06:50;;;;;;;;;13.25;13.25;;;;;-0.98;48.33;99307.66;5047256;28;8938;-71
2023/03/12 07:09:20;;;;;;;;;15.75;13.50;;;;;-0.43;46.84;99302.75;5047950;28;8987;-73
2023/03/12 07:11:49;;;;;;;;;17.00;14.25;;;;;-0.45;47.19;99309.59;5047229;28;8873;-73
2023/03/12 07:14:20;;;;;;;;;18.00;16.00;;;;;-0.44;47.07;99302.75;5061546;28;8965;-72
2023/03/12 07:16:49;;;;;;;;;14.00;13.00;;;;;-0.48;47.33;99307.00;5046733;28;8845;-73
2023/03/12 07:19:18;;;;;;;;;13.50;12.50;;;;;-0.21;47.08;99304.06;5044953;28;8852;-73
2023/03/12 07:21:47;;;;;;;;;16.50;14.25;;;;;-0.23;47.44;99308.31;5047242;28;8887;-73
2023/03/12 07:24:16;;;;;;;;;12.75;11.25;;;;;-0.44;46.79;99303.63;5045893;28;8853;-72
2023/03/12 07:26:47;;;;;;;;;16.25;14.00;;;;;-0.64;47.76;99310.09;5047058;28;8975;-72
2023/03/12 07:29:15;;;;;;;;;15.50;13.25;;;;;-0.70;48.78;99334.94;5047513;28;8865;-72
2023/03/12 07:31:44;;;;;;;;;17.25;16.00;;;;;-0.66;48.41;99320.38;5079277;28;8983;-72
2023/03/12 07:34:13;;;;;;;;;17.00;16.00;;;;;-0.56;48.80;99316.28;5027901;28;8856;-72
2023/03/12 07:36:42;;;;;;;;;13.25;12.75;;;;;-0.72;48.79;99334.03;5044255;28;10215;-73
2023/03/12 07:39:11;;;;;;;;;16.80;16.00;;;;;-0.48;48.63;99339.66;5062063;28;8872;-72
2023/03/12 07:41:40;;;;;;;;;13.20;13.20;;;;;-0.31;48.17;99346.91;5062070;28;8848;-73
2023/03/12 07:44:12;;;;;;;;;13.40;13.00;;;;;-0.41;47.92;99344.97;5062516;28;8848;-72
2023/03/12 07:46:41;;;;;;;;;16.50;15.75;;;;;-0.22;47.31;99350.50;5047991;28;8868;-73
2023/03/12 07:49:10;;;;;;;;;11.40;11.40;;;;;0.23;46.12;99349.63;5014636;28;8851;-73
2023/03/12 07:51:39;;;;;;;;;15.75;15.50;;;;;-0.08;47.60;99359.41;5030875;28;8898;-72
2023/03/12 07:54:07;;;;;;;;;15.50;15.50;;;;;-0.20;47.12;99367.81;5030499;28;8950;-72
2023/03/12 07:56:36;;;;;;;;;18.50;16.75;;;;;0.24;46.09;99366.91;5030523;28;8874;-72
2023/03/12 07:59:05;;;;;;;;;9.75;7.25;;;;;-0.04;46.75;99387.03;5030648;28;8882;-74
2023/03/12 08:01:36;;;;;;;;;16.40;14.00;;;;;0.42;45.67;99376.69;5043812;28;8865;-73
2023/03/12 08:04:05;;;;;;;;;14.60;13.80;;;;;1.03;43.25;99374.22;5055981;28;8877;-73
2023/03/12 08:06:34;;;;;;;;;13.20;11.20;;;;;1.18;43.29;99392.59;5083095;28;8851;-72
2023/03/12 08:09:03;;;;;;;;;14.00;10.60;;;;;1.21;43.82;99387.44;5041053;28;8965;-73
2023/03/12 08:11:33;;;;;;;;;12.20;11.40;;;;;1.48;42.07;99391.28;5050905;28;8841;-72
2023/03/12 08:14:02;;;;;;;;;12.00;11.60;;;;;1.78;41.60;99397.69;5050235;28;8880;-73
2023/03/12 08:16:31;;;;;;;;;12.60;11.40;;;;;0.89;43.33;99405.06;5018160;28;8864;-72
2023/03/12 08:19:01;;;;;;;;;40.25;31.75;;;;;1.70;42.88;99383.78;5050301;28;8950;-73
2023/03/12 08:21:30;;;;;;;;;17.80;15.00;;;;;2.11;41.77;99384.28;5049341;28;8867;-72
2023/03/12 08:23:59;;;;;;;;;15.00;13.60;;;;;1.64;41.39;99401.00;5050480;28;8861;-72
2023/03/12 08:26:27;;;;;;;;;10.00;8.80;;;;;1.33;42.52;99407.50;5050205;28;8859;-73
2023/03/12 08:28:59;;;;;;;;;5.00;5.00;;;;;0.94;42.96;99403.41;5065666;28;8868;-78
2023/03/12 08:31:28;;;;;;;;;11.40;11.40;;;;;0.39;44.35;99410.25;5050137;28;8865;-78
2023/03/12 08:33:57;;;;;;;;;12.00;11.00;;;;;0.18;44.37;99414.19;5056708;28;8875;-77
2023/03/12 08:36:27;;;;;;;;;8.00;8.00;;;;;0.43;42.64;99399.13;5056576;28;8849;-76
2023/03/12 08:38:56;;;;;;;;;9.60;9.20;;;;;0.32;43.10;99396.34;5066002;28;8849;-76
2023/03/12 08:41:25;;;;;;;;;9.20;9.20;;;;;0.53;41.25;99403.59;5031742;28;9603;-76
2023/03/12 08:43:55;;;;;;;;;14.80;14.80;;;;;1.15;40.12;99408.09;5050340;28;8833;-78
2023/03/12 08:46:24;;;;;;;;;21.00;18.75;;;;;1.79;40.42;99400.31;5049838;28;8852;-77
2023/03/12 08:48:53;;;;;;;;;14.80;11.80;;;;;1.88;39.93;99402.16;5050549;28;8865;-78
2023/03/12 08:51:22;;;;;;;;;17.20;12.00;;;;;1.78;40.51;99402.88;5048697;28;8887;-79
2023/03/12 08:53:52;;;;;;;;;16.80;14.20;;;;;1.71;39.88;99407.13;5082987;28;8895;-78
2023/03/12 08:56:21;;;;;;;;;12.00;11.40;;;;;2.28;39.70;99399.13;5069180;28;8860;-78
2023/03/12 08:58:50;;;;;;;;;16.40;12.00;;;;;2.45;38.61;99405.38;5050719;28;8947;-78
2023/03/12 09:01:19;;;;;;;;;16.60;15.00;;;;;1.40;40.62;99408.44;5037553;28;8837;-78
2023/03/12 09:03:49;;;;;;;;;13.20;13.20;;;;;1.09;41.02;99417.47;5089410;28;8849;-79
2023/03/12 09:06:19;;;;;;;;;15.20;14.40;;;;;1.44;41.18;99416.25;5053307;28;8885;-78
2023/03/12 09:08:48;;;;;;;;;15.00;12.80;;;;;1.08;42.09;99407.97;5067704;28;8941;-78
2023/03/12 09:11:18;;;;;;;;;11.60;11.60;;;;;1.61;41.82;99398.34;5067013;28;8879;-81
2023/03/12 09:13:47;;;;;;;;;11.00;11.00;;;;;2.21;40.24;99411.16;5034951;28;8922;-79
2023/03/12 09:16:36;;;;;;;;;14.00;12.00;;;;;1.39;40.63;99411.84;5049847;28;8857;-76
2023/03/12 09:19:05;;;;;;;;;17.00;14.80;;;;;1.65;40.51;99409.63;5032053;28;8918;-75
2023/03/12 09:21:34;;;;;;;;;18.00;16.00;;;;;1.51;41.13;99427.59;5049598;28;8852;-76
2023/03/12 09:24:02;;;;;;;;;16.60;11.20;;;;;1.10;41.43;99433.03;5033026;28;8873;-76
2023/03/12 09:26:33;;;;;;;;;16.80;16.40;;;;;1.38;41.02;99430.84;5059534;28;8885;-75
2023/03/12 09:29:01;;;;;;;;;16.50;16.50;;;;;1.74;40.91;99433.06;5055752;28;8971;-76
2023/03/12 09:31:31;;;;;;;;;18.00;15.00;;;;;1.50;41.59;99424.97;5048800;28;8841;-75
2023/03/12 09:33:59;;;;;;;;;15.00;12.80;;;;;1.29;41.33;99435.91;5079105;28;8849;-76
2023/03/12 09:36:28;;;;;;;;;11.00;8.20;;;;;0.92;41.38;99458.59;5031898;28;8857;-76
2023/03/12 09:38:57;;;;;;;;;12.20;11.20;;;;;0.92;41.62;99436.16;5064353;28;8872;-76
2023/03/12 09:41:29;;;;;;;;;13.00;12.60;;;;;1.04;41.27;99438.09;5048672;28;8879;-75
2023/03/12 09:44:04;;;;;;;;;15.75;15.75;;;;;1.32;40.95;99446.31;5049396;28;8954;-75
2023/03/12 09:46:37;;;;;;;;;17.00;15.25;;;;;1.46;40.93;99447.38;5043739;28;8859;-75
2023/03/12 09:49:11;;;;;;;;;14.80;14.40;;;;;1.82;40.88;99428.88;5049610;28;8841;-76
2023/03/12 09:51:48;;;;;;;;;18.60;15.40;;;;;1.90;40.23;99428.97;5048760;28;8849;-75
2023/03/12 09:54:24;;;;;;;;;13.40;12.00;;;;;1.75;39.73;99437.41;5035775;28;8855;-74
2023/03/12 09:56:58;;;;;;;;;15.00;13.00;;;;;1.40;40.24;99434.34;5048384;28;8938;-78
2023/03/12 09:59:28;;;;;;;;;15.00;13.50;;;;;1.43;40.58;99449.94;5048722;28;8907;-76
2023/03/12 10:02:01;;;;;;;;;12.40;12.40;;;;;1.54;40.59;99438.00;5047911;28;8878;-76
2023/03/12 10:04:41;;;;;;;;;15.20;9.40;;;;;1.41;39.64;99439.53;5048358;28;8841;-76
2023/03/12 10:07:35;;;;;;;;;11.80;11.80;;;;;1.97;38.95;99414.34;5047867;28;10192;-77
2023/03/12 10:10:28;;;;;;;;;14.60;12.80;;;;;1.40;39.02;99442.97;5047550;28;8864;-76
2023/03/12 10:13:14;;;;;;;;;11.20;6.80;;;;;1.21;40.39;99436.66;5010624;28;9601;-76
2023/03/12 10:15:57;;;;;;;;;14.40;12.60;;;;;1.71;39.33;99427.88;5046907;28;8995;-75
2023/03/12 10:18:42;;;;;;;;;11.40;11.40;;;;;1.97;38.84;99437.69;5067392;28;8882;-77
2023/03/12 10:21:22;;;;;;;;;14.80;14.60;;;;;1.36;39.65;99448.09;5033293;28;8851;-75
2023/03/12 10:24:08;;;;;;;;;14.20;12.00;;;;;1.71;38.98;99433.06;5060735;28;8871;-76
2023/03/12 10:26:40;;;;;;;;;13.60;11.40;;;;;1.42;39.66;99445.59;5047316;28;8873;-76
2023/03/12 10:29:16;;;;;;;;;11.00;9.80;;;;;1.59;38.73;99445.81;5044576;28;8868;-76
2023/03/12 10:31:54;;;;;;;;;15.40;14.20;;;;;1.31;39.47;99448.00;5047744;28;9548;-79
2023/03/12 10:34:28;;;;;;;;;12.40;11.00;;;;;1.58;39.99;99428.56;5041962;28;8872;-79
2023/03/12 10:37:00;;;;;;;;;15.20;14.80;;;;;1.82;39.74;99434.06;5025722;28;8860;-77
2023/03/12 10:39:29;;;;;;;;;12.00;11.20;;;;;1.67;39.60;99432.97;5010985;28;8912;-77
2023/03/12 10:42:01;;;;;;;;;11.00;11.00;;;;;1.51;39.39;99444.88;5028562;28;8891;-78
2023/03/12 10:44:30;;;;;;;;;16.20;15.20;;;;;1.64;39.59;99444.19;5045083;28;8838;-76
2023/03/12 10:47:12;;;;;;;;;13.80;13.80;;;;;1.60;40.53;99443.25;5045974;28;9759;-77
2023/03/12 10:49:41;;;;;;;;;11.60;11.60;;;;;1.92;39.25;99434.16;5029457;28;8869;-78
2023/03/12 10:52:16;;;;;;;;;19.20;14.80;;;;;2.43;38.90;99425.25;5045145;28;9004;-78
2023/03/12 10:54:47;;;;;;;;;14.00;11.40;;;;;2.19;38.56;99441.41;5029314;28;8870;-76
2023/03/12 10:57:16;;;;;;;;;15.60;12.60;;;;;2.10;39.24;99428.31;5045605;28;9012;-78
2023/03/12 10:59:48;;;;;;;;;12.20;10.60;;;;;2.18;38.91;99445.72;5012986;28;8923;-77
2023/03/12 11:02:31;;;;;;;;;13.60;12.20;;;;;2.18;38.18;99440.53;5045521;28;8870;-78
2023/03/12 11:05:02;;;;;;;;;14.40;13.20;;;;;2.56;38.35;99431.41;5031447;28;8845;-77
2023/03/12 11:07:32;;;;;;;;;15.60;13.80;;;;;2.23;38.59;99440.56;5047105;28;8849;-77
2023/03/12 11:10:18;;;;;;;;;14.60;12.20;;;;;2.37;38.95;99431.25;5080023;28;8931;-77
2023/03/12 11:13:02;;;;;;;;;15.00;12.00;;;;;2.44;39.25;99428.69;5080192;28;8833;-78
2023/03/12 11:15:39;;;;;;;;;16.25;15.75;;;;;2.35;39.02;99438.13;5030557;28;8847;-78
2023/03/12 11:18:36;;;;;;;;;11.60;11.00;;;;;2.17;39.38;99441.38;5047937;28;8865;-77
2023/03/12 11:21:16;;;;;;;;;18.20;17.20;;;;;2.56;39.18;99424.50;5032292;28;8855;-78
2023/03/12 11:23:47;;;;;;;;;17.20;15.40;;;;;2.87;39.58;99429.09;5036407;28;8860;-78
2023/03/12 11:26:19;;;;;;;;;16.20;15.00;;;;;3.17;38.17;99424.13;5069230;28;8847;-79
2023/03/12 11:28:50;;;;;;;;;12.00;11.20;;;;;2.65;38.22;99436.69;5035574;28;8883;-78
2023/03/12 11:31:26;;;;;;;;;15.80;13.20;;;;;2.80;38.32;99422.97;5052376;28;8854;-78
2023/03/12 11:34:03;;;;;;;;;16.00;14.80;;;;;3.07;36.91;99429.25;5069169;28;8848;-78
2023/03/12 11:36:45;;;;;;;;;13.80;13.80;;;;;2.98;37.15;99430.06;5068935;28;8967;-78
2023/03/12 11:39:26;;;;;;;;;13.00;12.80;;;;;3.07;37.13;99419.75;5069043;28;8859;-78
2023/03/12 11:42:08;;;;;;;;;8.00;8.00;;;;;3.02;37.31;99430.97;5068827;28;8937;-79
2023/03/12 11:44:51;;;;;;;;;17.40;16.20;;;;;2.90;37.30;99424.81;5052059;28;8872;-80
2023/03/12 11:47:34;;;;;;;;;16.60;15.40;;;;;3.20;37.12;99431.97;5051776;28;8883;-77
2023/03/12 11:50:24;;;;;;;;;14.00;13.60;;;;;2.59;38.61;99434.03;5051852;28;8863;-79
2023/03/12 11:53:07;;;;;;;;;16.40;16.40;;;;;2.67;37.91;99441.88;5052262;28;8852;-78